createdAt,value
2022-07-26T00:01:34.275Z,30.1
2022-07-26T00:07:04.763Z,30.1
2022-07-26T00:12:35.356Z,30.1
2022-07-26T00:18:05.959Z,30.1
2022-07-26T00:23:36.899Z,30
2022-07-26T00:29:08.231Z,30
2022-07-26T00:34:37.793Z,30
2022-07-26T00:40:08.986Z,30
2022-07-26T00:45:39.052Z,29.9
2022-07-26T00:51:09.648Z,29.9
2022-07-26T00:56:40.251Z,29.9
2022-07-26T01:02:10.962Z,29.9
2022-07-26T01:07:40.651Z,29.9
2022-07-26T01:13:11.296Z,29.9
2022-07-26T01:18:40.878Z,29.9
2022-07-26T01:24:11.618Z,29.9
2022-07-26T01:29:42.057Z,29.9
2022-07-26T01:35:12.629Z,29.8
2022-07-26T01:40:43.186Z,29.8
2022-07-26T01:46:13.887Z,29.8
2022-07-26T01:51:44.380Z,29.8
2022-07-26T01:57:14.974Z,29.8
2022-07-26T02:02:45.945Z,29.8
2022-07-26T02:08:16.628Z,29.8
2022-07-26T02:13:52.685Z,29.8
2022-07-26T02:19:17.723Z,29.8
2022-07-26T02:24:48.698Z,29.8
2022-07-26T02:30:19.564Z,29.7
2022-07-26T02:35:50.385Z,29.7
2022-07-26T02:41:20.265Z,29.7
2022-07-26T02:46:50.908Z,29.7
2022-07-26T02:52:21.457Z,29.7
2022-07-26T02:57:52.044Z,29.7
2022-07-26T03:03:22.642Z,29.7
2022-07-26T03:08:53.297Z,29.7
2022-07-26T03:14:23.104Z,29.7
2022-07-26T03:19:53.731Z,29.7
2022-07-26T03:25:24.306Z,29.7
2022-07-26T03:30:55.013Z,29.7
2022-07-26T03:36:25.513Z,29.7
2022-07-26T03:41:56.257Z,29.7
2022-07-26T03:47:26.854Z,29.7
2022-07-26T03:52:57.462Z,29.7
2022-07-26T03:58:28.069Z,29.7
2022-07-26T04:03:58.694Z,29.7
2022-07-26T04:09:29.455Z,29.7
2022-07-26T04:15:00.297Z,29.7
2022-07-26T04:20:31.249Z,29.7
2022-07-26T04:26:01.117Z,29.7
2022-07-26T04:31:34.937Z,29.7
2022-07-26T04:37:01.352Z,29.7
2022-07-26T04:42:31.953Z,29.7
2022-07-26T04:48:02.557Z,29.7
2022-07-26T04:53:33.337Z,29.7
2022-07-26T04:59:03.981Z,29.7
2022-07-26T05:04:34.555Z,29.5
2022-07-26T05:10:05.130Z,29.4
2022-07-26T05:15:35.871Z,29.3
2022-07-26T05:21:06.492Z,29.4
2022-07-26T05:26:37.350Z,29.4
2022-07-26T05:32:08.182Z,29.3
2022-07-26T05:37:38.055Z,29.2
2022-07-26T05:43:08.680Z,29.1
2022-07-26T05:48:39.351Z,29.1
2022-07-26T05:54:10.277Z,29
2022-07-26T05:59:40.436Z,29
2022-07-26T06:05:11.211Z,28.9
2022-07-26T06:10:42.084Z,28.9
2022-07-26T06:16:13.035Z,28.8
2022-07-26T06:21:42.842Z,28.8
2022-07-26T06:27:12.465Z,28.8
2022-07-26T06:32:43.114Z,28.8
2022-07-26T06:38:13.713Z,28.7
2022-07-26T06:43:43.301Z,28.8
2022-07-26T06:49:13.931Z,28.8
2022-07-26T06:54:44.497Z,28.8
2022-07-26T07:00:15.114Z,28.7
2022-07-26T07:05:49.715Z,28.7
2022-07-26T07:11:16.456Z,28.6
2022-07-26T07:16:47.400Z,28.6
2022-07-26T07:22:18.272Z,28.6
2022-07-26T07:27:48.375Z,28.7
2022-07-26T07:33:22.525Z,28.9
2022-07-26T07:38:49.554Z,28.9
2022-07-26T07:44:20.170Z,28.9
2022-07-26T07:49:50.790Z,29
2022-07-26T07:55:40.613Z,29
2022-07-26T08:00:52.506Z,29
2022-07-26T08:06:23.401Z,29
2022-07-26T08:11:53.230Z,29
2022-07-26T08:17:23.813Z,29.1
2022-07-26T08:22:54.392Z,29.3
2022-07-26T08:28:46.213Z,29.7
2022-07-26T08:33:55.593Z,30
2022-07-26T08:39:26.419Z,30.1
2022-07-26T08:44:57.323Z,30
2022-07-26T08:50:28.242Z,30.2
2022-07-26T08:56:06.905Z,30.4
2022-07-26T09:01:29.204Z,30.3
2022-07-26T09:07:00.074Z,30.5
2022-07-26T09:12:30.946Z,30.9
2022-07-26T09:18:01.804Z,30.8
2022-07-26T09:23:31.976Z,31.1
2022-07-26T09:29:02.831Z,30.7
2022-07-26T09:34:33.653Z,30.4
2022-07-26T09:40:04.531Z,30.3
2022-07-26T09:45:33.259Z,30.3
2022-07-26T09:51:03.860Z,30.3
2022-07-26T09:56:34.482Z,30.5
2022-07-26T10:02:05.109Z,30.6
2022-07-26T10:07:34.688Z,30.7
2022-07-26T10:13:05.256Z,30.7
2022-07-26T10:18:35.864Z,30.8
2022-07-26T10:24:06.568Z,30.7
2022-07-26T10:29:37.053Z,30.7
2022-07-26T10:35:07.644Z,30.7
2022-07-26T10:40:37.243Z,30.7
2022-07-26T10:46:07.907Z,30.6
2022-07-26T10:51:38.486Z,30.6
2022-07-26T10:57:08.078Z,30.6
2022-07-26T11:02:38.798Z,30.6
2022-07-26T11:08:09.293Z,30.5
2022-07-26T11:13:39.915Z,30.5
2022-07-26T11:19:10.504Z,30.6
2022-07-26T11:24:41.221Z,30.7
2022-07-26T11:30:11.828Z,30.8
2022-07-26T11:35:42.446Z,30.8
2022-07-26T11:41:13.280Z,30.9
2022-07-26T11:46:44.067Z,30.9
2022-07-26T11:52:14.591Z,31
2022-07-26T11:57:45.370Z,31
2022-07-26T12:03:15.935Z,31
2022-07-26T12:08:46.542Z,31
2022-07-26T12:14:18.734Z,31
2022-07-26T12:19:47.750Z,30.9
2022-07-26T12:25:18.475Z,30.9
2022-07-26T12:30:49.103Z,30.8
2022-07-26T12:36:28.419Z,30.7
2022-07-26T12:41:50.273Z,30.6
2022-07-26T12:47:20.873Z,30.4
2022-07-26T12:52:51.566Z,30.3
2022-07-26T12:58:21.382Z,30.2
2022-07-26T13:03:52.185Z,30.1
2022-07-26T13:09:22.611Z,30.1
2022-07-26T13:14:53.508Z,30.1
2022-07-26T13:20:23.817Z,30.2
2022-07-26T13:25:54.626Z,30.3
2022-07-26T13:31:24.387Z,30.5
2022-07-26T13:36:54.810Z,30.6
2022-07-26T13:42:25.448Z,30.6
2022-07-26T13:47:56.062Z,30.5
2022-07-26T13:53:26.637Z,30.5
2022-07-26T13:58:57.488Z,30.5
2022-07-26T14:04:29.113Z,30.5
2022-07-26T14:09:58.228Z,30.5
2022-07-26T14:15:28.755Z,30.5
2022-07-26T14:20:59.349Z,30.5
2022-07-26T14:26:29.959Z,30.5
2022-07-26T14:32:00.681Z,30.5
2022-07-26T14:37:43.941Z,30.6
2022-07-26T14:43:00.917Z,30.6
2022-07-26T14:48:52.989Z,30.7
2022-07-26T14:54:02.133Z,30.6
2022-07-26T14:59:32.700Z,30.5
2022-07-26T15:05:03.326Z,30.5
2022-07-26T15:10:34.192Z,30.5
2022-07-26T15:16:05.117Z,30.5
2022-07-26T15:21:35.166Z,30.6
2022-07-26T15:27:06.013Z,30.5
2022-07-26T15:32:36.886Z,30.5
2022-07-26T15:38:07.724Z,30.4
2022-07-26T15:43:48.375Z,30.3
2022-07-26T15:49:08.129Z,30.2
2022-07-26T15:54:38.681Z,30.1
2022-07-26T16:00:11.097Z,30
2022-07-26T16:05:39.901Z,29.9
2022-07-26T16:11:10.669Z,29.8
2022-07-26T16:16:41.650Z,29.8
2022-07-26T16:22:12.374Z,29.8
2022-07-26T16:27:42.449Z,29.9
2022-07-26T16:33:12.417Z,29.9
2022-07-26T16:38:42.235Z,30
2022-07-26T16:44:12.836Z,30
2022-07-26T16:49:43.449Z,29.9
2022-07-26T16:55:14.077Z,29.9
2022-07-26T17:00:44.727Z,29.9
2022-07-26T17:06:15.616Z,29.8
2022-07-26T17:11:46.467Z,29.8
2022-07-26T17:17:17.346Z,29.8
2022-07-26T17:22:47.417Z,29.9
2022-07-26T17:28:17.973Z,29.9
2022-07-26T17:33:48.559Z,29.9
2022-07-26T17:39:19.177Z,29.9
2022-07-26T17:44:49.790Z,29.9
2022-07-26T17:50:37.695Z,29.9
2022-07-26T17:55:51.398Z,29.9
2022-07-26T18:01:22.311Z,29.9
2022-07-26T18:06:52.373Z,29.9
2022-07-26T18:12:23.216Z,29.9
2022-07-26T18:17:54.076Z,29.9
2022-07-26T18:23:24.932Z,29.9
2022-07-26T18:28:55.855Z,29.9
2022-07-26T18:34:25.965Z,29.9
2022-07-26T18:39:58.043Z,29.9
2022-07-26T18:45:27.265Z,29.9
2022-07-26T18:50:56.901Z,29.8
2022-07-26T18:56:27.496Z,29.8
2022-07-26T19:01:58.178Z,29.8
2022-07-26T19:07:28.693Z,29.8
2022-07-26T19:12:59.299Z,29.8
2022-07-26T19:18:29.911Z,29.7
2022-07-26T19:24:00.497Z,29.7
2022-07-26T19:29:31.246Z,29.7
2022-07-26T19:35:02.130Z,29.7
2022-07-26T19:40:32.927Z,29.6
2022-07-26T19:46:04.043Z,29.6
2022-07-26T19:51:34.891Z,29.6
2022-07-26T19:57:05.773Z,29.6
2022-07-26T20:02:36.599Z,29.6
2022-07-26T20:08:07.107Z,29.6
2022-07-26T20:13:37.911Z,29.6
2022-07-26T20:19:08.953Z,29.5
2022-07-26T20:24:39.093Z,29.5
2022-07-26T20:30:09.719Z,29.5
2022-07-26T20:35:40.280Z,29.5
2022-07-26T20:41:10.903Z,29.5
2022-07-26T20:46:41.511Z,29.5
2022-07-26T20:52:12.346Z,29.4
2022-07-26T20:57:42.932Z,29.4
2022-07-26T21:03:13.813Z,29.4
2022-07-26T21:08:44.803Z,29.4
2022-07-26T21:14:14.860Z,29.4
2022-07-26T21:19:45.462Z,29.4
2022-07-26T21:25:16.069Z,29.3
2022-07-26T21:30:46.644Z,29.3
2022-07-26T21:36:17.246Z,29.3
2022-07-26T21:41:46.859Z,29.3
2022-07-26T21:47:17.436Z,29.3
2022-07-26T21:52:48.047Z,29.3
2022-07-26T21:58:18.661Z,29.3
2022-07-26T22:03:49.255Z,29.3
2022-07-26T22:09:19.928Z,29.3
2022-07-26T22:14:50.801Z,29.3
2022-07-26T22:20:21.648Z,29.3
2022-07-26T22:25:51.739Z,29.3
2022-07-26T22:31:21.644Z,29.3
2022-07-26T22:36:52.189Z,29.3
2022-07-26T22:42:22.797Z,29.3
2022-07-26T22:47:55.957Z,29.2
2022-07-26T22:53:24.008Z,29.2
2022-07-26T22:58:54.653Z,29.2
2022-07-26T23:04:25.477Z,29.2
2022-07-26T23:09:56.336Z,29.2
2022-07-26T23:15:26.352Z,29.2
2022-07-26T23:20:57.145Z,29.2
2022-07-26T23:26:27.507Z,29.2
2022-07-26T23:31:58.145Z,29.2
2022-07-26T23:37:28.712Z,29.2
2022-07-26T23:42:59.399Z,29.2
2022-07-26T23:48:30.307Z,29.1
2022-07-26T23:54:01.087Z,29.1
2022-07-26T23:59:32.018Z,29.1
